Hauptseite
METAR-TAF:

METAR-TAF

Flughäfen :

Flughafen Tours

Tours, Frankreich

Breite: 47-27N, Länge: 000-43E, Höhe: 108 m

Beobachtung

Neuester Wetterbericht von vor 27 Minuten, um 18:00 UTC
Wind 5 kt aus Ost
Temperatur 34°C
Luftfeuchtigkeit 20%
Luftdruck 1015 hPa
Sichtweite 10 km oder mehr
keine Wolken unter 1500 m und keine Kumulonimbus oder Gewitterwolken

METAR: LFOT 061800Z AUTO 09005KT CAVOK 34/08 Q1015 NOSIG

Zeit: 20:27 (18:27 UTC)

Prognose

Neuester Wetterbericht von vor 1 Stunde und 27 Minuten, um 17:00 UTC
Gültige Prognose vom 06 um 18 UTC bis 07 um 18 UTC
Wind 5 kt aus Ost/Nordost
Sichtweite 10 km oder mehr
keine Wolken unter 1500 m und keine Kumulonimbus oder Gewitterwolken

TAF: LFOT 061700Z 0618/0718 07005KT CAVOK

Wetterbeobachtungen und Prognosen von mehr als 4000 Flughäfen (METAR und TAF Bericht).

Die verfügbaren Stationen werden durch gelbe und rote Markierungen auf der Karte dargestellt.

Führen Sie die Maus auf sie, um den Namen der Station zu sehen.

Darauf klicken, um die Beobachtung von Wetterbeobachtungen und Prognosen zu sehen.

Um die Karte zu ändern : klicken Sie auf den grünen Tasten mit einem schwarzen Kreuz Zum Vergrößern, auf den grünen Button mit einem Gedankenstrich zu verkleinern, oder auf die grünen Pfeile für benachbarte Karten.


METAR-TAF: